Time;durP1;ratioP1;P1;durP2;ratioP2;P2;SDS_P1;SDS_P2;PMS_P1;PMS_P2;Temp;Humidity;BMP_temperature;BMP_pressure;BME280_temperature;BME280_humidity;BME280_pressure;Samples;Min_cycle;Max_cycle;Signal;HPM_P1;HPM_P2
2021/03/24 06:00:47;;;;;;;0.00;0.00;;;;;;;;;;5079350;28;20404;-62
2021/03/24 06:03:13;;;;;;;0.00;0.00;;;;;;;;;;5064915;28;20417;-61
2021/03/24 06:05:51;;;;;;;0.00;0.00;;;;;;;;;;5064742;28;20374;-61
2021/03/24 06:08:38;;;;;;;0.00;0.00;;;;;;;;;;5065390;28;20045;-62
2021/03/24 06:11:04;;;;;;;0.00;0.00;;;;;;;;;;5049918;28;20393;-62
2021/03/24 06:13:48;;;;;;;0.00;0.00;;;;;;;;;;5068086;28;20043;-60
2021/03/24 06:16:27;;;;;;;0.00;0.00;;;;;;;;;;5065458;28;20426;-61
2021/03/24 06:19:08;;;;;;;0.00;0.00;;;;;;;;;;5064298;28;20029;-61
2021/03/24 06:21:59;;;;;;;0.00;0.00;;;;;;;;;;5064222;28;20466;-64
2021/03/24 06:24:44;;;;;;;0.00;0.00;;;;;;;;;;5064326;28;20031;-61
2021/03/24 06:27:10;;;;;;;0.00;0.00;;;;;;;;;;5064019;28;20047;-61
2021/03/24 06:29:49;;;;;;;0.10;0.10;;;;;;;;;;5064250;28;20029;-62
2021/03/24 06:32:50;;;;;;;0.10;0.10;;;;;;;;;;5063914;28;20022;-61
2021/03/24 06:35:22;;;;;;;0.10;0.10;;;;;;;;;;5030475;28;20033;-61
2021/03/24 06:37:56;;;;;;;0.00;0.00;;;;;;;;;;5044455;28;20045;-62
2021/03/24 06:40:40;;;;;;;0.00;0.00;;;;;;;;;;5045629;28;20495;-62
2021/03/24 06:43:07;;;;;;;0.10;0.10;;;;;;;;;;5041159;28;20558;-62
2021/03/24 06:45:56;;;;;;;0.10;0.10;;;;;;;;;;5044437;28;20364;-61
2021/03/24 06:48:38;;;;;;;0.08;0.08;;;;;;;;;;5034244;28;20041;-61
2021/03/24 06:51:06;;;;;;;0.10;0.10;;;;;;;;;;5044386;28;20037;-62
2021/03/24 06:53:44;;;;;;;0.38;0.38;;;;;;;;;;5044192;28;20025;-62
2021/03/24 06:56:16;;;;;;;0.20;0.20;;;;;;;;;;5029665;28;20048;-61
2021/03/24 06:58:51;;;;;;;0.60;0.60;;;;;;;;;;5044560;28;20180;-62
2021/03/24 07:01:56;;;;;;;0.00;0.00;;;;;;;;;;5031143;28;20040;-61
2021/03/24 07:04:41;;;;;;;1.17;1.17;;;;;;;;;;4953352;29;20031;-61
2021/03/24 07:07:23;;;;;;;0.10;0.10;;;;;;;;;;4953280;29;20125;-62
2021/03/24 07:09:55;;;;;;;0.10;0.10;;;;;;;;;;4981217;28;20444;-62
2021/03/24 07:12:21;;;;;;;0.10;0.10;;;;;;;;;;4991415;28;20395;-62
2021/03/24 07:14:54;;;;;;;0.15;0.15;;;;;;;;;;4991045;28;20033;-61
2021/03/24 07:17:35;;;;;;;0.10;0.10;;;;;;;;;;4990505;28;20046;-62
2021/03/24 07:20:06;;;;;;;2.58;1.60;;;;;;;;;;4979167;28;20439;-64
2021/03/24 07:22:35;;;;;;;0.15;0.15;;;;;;;;;;4977819;28;20583;-64
2021/03/24 07:25:19;;;;;;;0.17;0.17;;;;;;;;;;4977728;28;20034;-64
2021/03/24 07:28:04;;;;;;;0.20;0.20;;;;;;;;;;4976406;28;20038;-64
2021/03/24 07:30:55;;;;;;;0.35;0.35;;;;;;;;;;4981581;28;20042;-64
2021/03/24 07:33:21;;;;;;;1.48;1.15;;;;;;;;;;4984589;28;20519;-64
2021/03/24 07:36:06;;;;;;;0.10;0.10;;;;;;;;;;5032826;28;20036;-63
2021/03/24 07:38:41;;;;;;;0.10;0.10;;;;;;;;;;5046573;28;20576;-63
2021/03/24 07:41:07;;;;;;;0.20;0.20;;;;;;;;;;5034796;28;20036;-64
2021/03/24 07:43:46;;;;;;;0.10;0.10;;;;;;;;;;5049726;28;20082;-65
2021/03/24 07:46:44;;;;;;;0.10;0.10;;;;;;;;;;5037886;28;20490;-64
2021/03/24 07:49:29;;;;;;;1.25;0.70;;;;;;;;;;5026774;28;20053;-64
2021/03/24 07:52:03;;;;;;;0.70;0.70;;;;;;;;;;5015403;28;20129;-63
2021/03/24 07:54:48;;;;;;;0.10;0.10;;;;;;;;;;5015112;28;20315;-63
2021/03/24 07:57:14;;;;;;;0.10;0.10;;;;;;;;;;5015588;28;20038;-63
2021/03/24 08:00:10;;;;;;;0.20;0.20;;;;;;;;;;5016011;28;20077;-63
2021/03/24 08:02:54;;;;;;;0.10;0.10;;;;;;;;;;5005832;28;20574;-63
2021/03/24 08:05:32;;;;;;;0.95;0.55;;;;;;;;;;5006437;28;20062;-63
2021/03/24 08:07:58;;;;;;;0.10;0.10;;;;;;;;;;5007528;28;20442;-63
2021/03/24 08:10:39;;;;;;;0.20;0.20;;;;;;;;;;5010008;28;20041;-63
2021/03/24 08:13:06;;;;;;;15.98;1.75;;;;;;;;;;5008643;28;20128;-63
2021/03/24 08:15:34;;;;;;;0.65;0.65;;;;;;;;;;5005554;28;20377;-62
2021/03/24 08:18:20;;;;;;;0.10;0.10;;;;;;;;;;5005651;28;20037;-64
2021/03/24 08:21:05;;;;;;;0.10;0.10;;;;;;;;;;5005982;28;20096;-64
2021/03/24 08:23:46;;;;;;;4.50;1.10;;;;;;;;;;5006641;28;20519;-63
2021/03/24 08:26:12;;;;;;;0.35;0.35;;;;;;;;;;5006514;28;20053;-63
2021/03/24 08:28:45;;;;;;;0.10;0.10;;;;;;;;;;5008453;28;20447;-62
2021/03/24 08:31:14;;;;;;;0.20;0.20;;;;;;;;;;5002699;28;20034;-63
2021/03/24 08:33:40;;;;;;;1.00;0.75;;;;;;;;;;4996974;28;20041;-63
2021/03/24 08:36:09;;;;;;;0.10;0.10;;;;;;;;;;5002236;28;20423;-63
2021/03/24 08:38:35;;;;;;;2.05;0.45;;;;;;;;;;5013015;28;20062;-63
2021/03/24 08:41:14;;;;;;;0.10;0.10;;;;;;;;;;5046325;28;20047;-64
2021/03/24 08:43:46;;;;;;;0.35;0.35;;;;;;;;;;5045217;28;20205;-63
2021/03/24 08:46:27;;;;;;;0.57;0.57;;;;;;;;;;5048571;28;20510;-63
2021/03/24 08:49:01;;;;;;;2.85;1.48;;;;;;;;;;5048486;28;20037;-64
2021/03/24 08:51:46;;;;;;;0.90;0.88;;;;;;;;;;5046934;28;20486;-64
2021/03/24 08:54:15;;;;;;;0.10;0.10;;;;;;;;;;5045671;28;20178;-64
2021/03/24 08:56:51;;;;;;;0.90;0.90;;;;;;;;;;5048174;28;20106;-64
2021/03/24 08:59:17;;;;;;;1.98;0.98;;;;;;;;;;5045745;28;20052;-63
2021/03/24 09:01:53;;;;;;;1.67;1.13;;;;;;;;;;5046381;28;20025;-64
2021/03/24 09:04:26;;;;;;;0.75;0.75;;;;;;;;;;5046696;28;20021;-63
2021/03/24 09:06:59;;;;;;;0.10;0.10;;;;;;;;;;5043688;28;20410;-63
2021/03/24 09:10:04;;;;;;;0.25;0.25;;;;;;;;;;5044935;28;20021;-63
2021/03/24 09:12:33;;;;;;;0.25;0.25;;;;;;;;;;5024428;28;20041;-64
2021/03/24 09:15:03;;;;;;;0.55;0.55;;;;;;;;;;5022338;28;20118;-63
2021/03/24 09:17:31;;;;;;;0.93;0.85;;;;;;;;;;5027724;28;20420;-63
2021/03/24 09:20:03;;;;;;;0.88;0.52;;;;;;;;;;5024889;28;20072;-64
2021/03/24 09:22:48;;;;;;;1.23;0.95;;;;;;;;;;5026137;28;20033;-63
2021/03/24 09:25:19;;;;;;;0.20;0.20;;;;;;;;;;5026122;28;20037;-63
2021/03/24 09:27:45;;;;;;;1.27;1.10;;;;;;;;;;5024741;28;20030;-63
2021/03/24 09:30:23;;;;;;;0.47;0.40;;;;;;;;;;5024482;28;20042;-64
2021/03/24 09:33:08;;;;;;;0.98;0.40;;;;;;;;;;5026290;28;20040;-63
2021/03/24 09:35:34;;;;;;;0.77;0.68;;;;;;;;;;5026066;28;20029;-63
2021/03/24 09:38:09;;;;;;;0.10;0.10;;;;;;;;;;5024814;28;20064;-63
2021/03/24 09:40:40;;;;;;;0.68;0.47;;;;;;;;;;5025370;28;20487;-63
2021/03/24 09:43:16;;;;;;;1.25;1.15;;;;;;;;;;5033831;28;20045;-64
2021/03/24 09:45:43;;;;;;;0.65;0.65;;;;;;;;;;5043362;28;20017;-65
2021/03/24 09:48:14;;;;;;;8.20;2.05;;;;;;;;;;5047651;28;20510;-63
2021/03/24 09:50:59;;;;;;;0.10;0.10;;;;;;;;;;5047859;28;20025;-63
2021/03/24 09:53:30;;;;;;;2.97;0.45;;;;;;;;;;5046289;28;20497;-64
2021/03/24 09:55:56;;;;;;;0.20;0.20;;;;;;;;;;5047998;28;20494;-63
2021/03/24 09:58:23;;;;;;;1.63;0.52;;;;;;;;;;5050120;28;20021;-64
2021/03/24 10:00:49;;;;;;;1.00;0.52;;;;;;;;;;5047781;28;20029;-63
2021/03/24 10:03:30;;;;;;;0.10;0.10;;;;;;;;;;5047744;28;20035;-63
2021/03/24 10:06:00;;;;;;;0.65;0.20;;;;;;;;;;5046316;28;20482;-64
2021/03/24 10:08:29;;;;;;;2.08;0.75;;;;;;;;;;5045362;28;20119;-63
2021/03/24 10:11:01;;;;;;;0.70;0.70;;;;;;;;;;5046800;28;20029;-63
2021/03/24 10:13:30;;;;;;;1.13;0.65;;;;;;;;;;5050172;28;20029;-64
2021/03/24 10:16:01;;;;;;;6.70;0.73;;;;;;;;;;5047096;28;20013;-64
2021/03/24 10:18:32;;;;;;;0.47;0.47;;;;;;;;;;5043814;28;20486;-63
2021/03/24 10:21:27;;;;;;;0.45;0.45;;;;;;;;;;5047040;28;20410;-64
2021/03/24 10:23:55;;;;;;;0.38;0.38;;;;;;;;;;5025402;28;20063;-64
2021/03/24 10:26:24;;;;;;;3.72;1.20;;;;;;;;;;5026624;28;20030;-63
2021/03/24 10:28:53;;;;;;;2.65;0.35;;;;;;;;;;5026390;28;20438;-64
2021/03/24 10:31:25;;;;;;;0.10;0.10;;;;;;;;;;5027633;28;20068;-64
2021/03/24 10:33:51;;;;;;;1.02;0.95;;;;;;;;;;5026872;28;20049;-63
2021/03/24 10:36:17;;;;;;;0.98;0.43;;;;;;;;;;5029510;28;20022;-63
2021/03/24 10:38:47;;;;;;;2.03;1.85;;;;;;;;;;5029995;28;20139;-64
2021/03/24 10:41:21;;;;;;;0.30;0.30;;;;;;;;;;5029579;28;20068;-63
2021/03/24 10:43:51;;;;;;;1.42;0.50;;;;;;;;;;5030846;28;20108;-64
2021/03/24 10:46:19;;;;;;;1.27;1.05;;;;;;;;;;5030472;28;20029;-64
2021/03/24 10:48:51;;;;;;;0.22;0.22;;;;;;;;;;5028609;28;20061;-64
2021/03/24 10:51:26;;;;;;;1.58;1.40;;;;;;;;;;5028966;28;20040;-64
2021/03/24 10:54:03;;;;;;;0.10;0.10;;;;;;;;;;5028228;28;20461;-63
2021/03/24 10:56:40;;;;;;;0.47;0.17;;;;;;;;;;5028059;28;20018;-64
2021/03/24 10:59:15;;;;;;;2.38;0.40;;;;;;;;;;5028091;28;20437;-63
2021/03/24 11:01:47;;;;;;;0.45;0.45;;;;;;;;;;5049409;28;20037;-62
2021/03/24 11:04:13;;;;;;;0.73;0.73;;;;;;;;;;5050751;28;20033;-64
2021/03/24 11:06:59;;;;;;;0.13;0.13;;;;;;;;;;5051801;28;20043;-64
2021/03/24 11:09:36;;;;;;;1.95;1.85;;;;;;;;;;5051014;28;20080;-64
2021/03/24 11:12:04;;;;;;;1.00;0.40;;;;;;;;;;5051633;28;20033;-64
2021/03/24 11:14:32;;;;;;;1.05;0.43;;;;;;;;;;5051626;28;20483;-64
2021/03/24 11:17:06;;;;;;;0.15;0.15;;;;;;;;;;5051098;28;20036;-64
2021/03/24 11:19:34;;;;;;;1.30;0.88;;;;;;;;;;5049813;28;20395;-63
2021/03/24 11:22:00;;;;;;;0.68;0.68;;;;;;;;;;5047566;28;20041;-63
2021/03/24 11:24:45;;;;;;;0.32;0.32;;;;;;;;;;5050724;28;20036;-64
2021/03/24 11:27:33;;;;;;;0.10;0.10;;;;;;;;;;5049566;28;20048;-63
2021/03/24 11:30:13;;;;;;;0.10;0.10;;;;;;;;;;5043571;28;20056;-63
2021/03/24 11:32:40;;;;;;;0.30;0.30;;;;;;;;;;5047302;28;20399;-64
2021/03/24 11:35:13;;;;;;;0.20;0.20;;;;;;;;;;5050854;28;20024;-64
2021/03/24 11:37:42;;;;;;;0.30;0.30;;;;;;;;;;5050880;28;20047;-63
2021/03/24 11:40:29;;;;;;;0.22;0.22;;;;;;;;;;5051310;28;20072;-63
2021/03/24 11:43:05;;;;;;;0.10;0.10;;;;;;;;;;5050525;28;20509;-63
2021/03/24 11:45:33;;;;;;;0.10;0.10;;;;;;;;;;5048913;28;20057;-64
2021/03/24 11:48:02;;;;;;;0.93;0.47;;;;;;;;;;5050222;28;20071;-64
2021/03/24 11:50:43;;;;;;;2.97;1.35;;;;;;;;;;5048175;28;20017;-63
2021/03/24 11:53:28;;;;;;;1.35;1.27;;;;;;;;;;5050714;28;20025;-64
2021/03/24 11:56:01;;;;;;;0.98;0.75;;;;;;;;;;5050419;28;20415;-63
2021/03/24 11:58:46;;;;;;;2.40;0.77;;;;;;;;;;5051685;28;20115;-64
2021/03/24 12:01:25;;;;;;;0.50;0.50;;;;;;;;;;5047891;28;20124;-64
2021/03/24 12:04:06;;;;;;;0.50;0.40;;;;;;;;;;5047117;28;20351;-63
2021/03/24 12:06:38;;;;;;;4.38;0.93;;;;;;;;;;5047905;28;20074;-64
2021/03/24 12:09:04;;;;;;;0.00;0.00;;;;;;;;;;5046730;28;20029;-63
2021/03/24 12:11:31;;;;;;;0.47;0.40;;;;;;;;;;5047241;28;20443;-64
2021/03/24 12:14:16;;;;;;;1.42;1.35;;;;;;;;;;5049907;28;20026;-64
2021/03/24 12:16:56;;;;;;;0.00;0.00;;;;;;;;;;5049722;28;20575;-64
2021/03/24 12:19:39;;;;;;;0.10;0.10;;;;;;;;;;5050955;28;20446;-64
2021/03/24 12:22:17;;;;;;;0.10;0.10;;;;;;;;;;5050491;28;20025;-64
2021/03/24 12:24:43;;;;;;;0.10;0.10;;;;;;;;;;5050217;28;20111;-64
2021/03/24 12:27:11;;;;;;;0.20;0.20;;;;;;;;;;5050493;28;20021;-64
2021/03/24 12:29:38;;;;;;;1.35;1.27;;;;;;;;;;5048955;28;20025;-64
2021/03/24 12:32:08;;;;;;;0.15;0.15;;;;;;;;;;5047708;28;20082;-65
2021/03/24 12:34:41;;;;;;;0.88;0.52;;;;;;;;;;5050219;28;20414;-64
2021/03/24 12:37:07;;;;;;;0.30;0.17;;;;;;;;;;5048283;28;20539;-64
2021/03/24 12:39:38;;;;;;;0.15;0.15;;;;;;;;;;5048855;28;20054;-64
2021/03/24 12:42:10;;;;;;;0.30;0.30;;;;;;;;;;5047869;28;20043;-63
2021/03/24 12:44:39;;;;;;;0.45;0.45;;;;;;;;;;5048888;28;20033;-64
2021/03/24 12:47:24;;;;;;;0.40;0.25;;;;;;;;;;5048290;28;20033;-63
2021/03/24 12:50:05;;;;;;;0.10;0.10;;;;;;;;;;5047999;28;20490;-65
2021/03/24 12:52:33;;;;;;;0.10;0.10;;;;;;;;;;5048192;28;20513;-64
2021/03/24 12:54:59;;;;;;;3.60;1.00;;;;;;;;;;5048090;28;20025;-64
2021/03/24 12:57:44;;;;;;;0.30;0.20;;;;;;;;;;5047386;28;20025;-66
2021/03/24 13:00:13;;;;;;;1.77;0.90;;;;;;;;;;5047504;28;20868;-63
2021/03/24 13:02:54;;;;;;;0.52;0.32;;;;;;;;;;5048601;28;20021;-64
2021/03/24 13:05:21;;;;;;;0.30;0.30;;;;;;;;;;5047529;28;20029;-63
2021/03/24 13:08:07;;;;;;;0.20;0.20;;;;;;;;;;5046601;28;20021;-64
2021/03/24 13:10:49;;;;;;;1.75;0.50;;;;;;;;;;5016348;28;20030;-63
2021/03/24 13:13:15;;;;;;;1.30;0.80;;;;;;;;;;5012143;28;20041;-64
2021/03/24 13:16:00;;;;;;;2.08;0.68;;;;;;;;;;5016034;28;20068;-62
2021/03/24 13:18:27;;;;;;;0.43;0.43;;;;;;;;;;5015442;28;20176;-63
2021/03/24 13:20:53;;;;;;;1.38;0.43;;;;;;;;;;5014551;28;20541;-63
2021/03/24 13:23:37;;;;;;;7.57;0.40;;;;;;;;;;5013282;28;20037;-64
2021/03/24 13:26:08;;;;;;;0.20;0.20;;;;;;;;;;5011751;28;20032;-63
2021/03/24 13:28:34;;;;;;;0.32;0.30;;;;;;;;;;5015333;28;20095;-63
2021/03/24 13:31:02;;;;;;;0.20;0.20;;;;;;;;;;5018053;28;20061;-64
2021/03/24 13:33:40;;;;;;;0.00;0.00;;;;;;;;;;5010524;28;20108;-63
2021/03/24 13:36:14;;;;;;;0.30;0.30;;;;;;;;;;5008841;28;20095;-64
2021/03/24 13:38:43;;;;;;;0.00;0.00;;;;;;;;;;5011266;28;20040;-66
2021/03/24 13:41:11;;;;;;;0.45;0.45;;;;;;;;;;5017089;28;20499;-64
2021/03/24 13:43:43;;;;;;;1.10;0.47;;;;;;;;;;5010369;28;20061;-64
2021/03/24 13:46:13;;;;;;;0.10;0.10;;;;;;;;;;4994157;28;20161;-63
2021/03/24 13:48:42;;;;;;;0.30;0.30;;;;;;;;;;5038598;28;20385;-63
2021/03/24 13:51:11;;;;;;;1.95;0.38;;;;;;;;;;5045368;28;20077;-63
2021/03/24 13:53:50;;;;;;;0.08;0.08;;;;;;;;;;5047894;28;20453;-64
2021/03/24 13:56:27;;;;;;;0.13;0.13;;;;;;;;;;5048221;28;20025;-63
2021/03/24 13:58:56;;;;;;;0.00;0.00;;;;;;;;;;5047588;28;20060;-64
2021/03/24 14:01:26;;;;;;;0.10;0.10;;;;;;;;;;5049954;28;20442;-63
2021/03/24 14:04:01;;;;;;;0.10;0.10;;;;;;;;;;5044840;28;20509;-64
2021/03/24 14:06:30;;;;;;;0.00;0.00;;;;;;;;;;5045279;28;20430;-64
2021/03/24 14:09:10;;;;;;;0.00;0.00;;;;;;;;;;5047826;28;20098;-64
2021/03/24 14:11:46;;;;;;;0.00;0.00;;;;;;;;;;5051150;28;20127;-64
2021/03/24 14:14:12;;;;;;;0.10;0.10;;;;;;;;;;5051110;28;20028;-63
2021/03/24 14:16:43;;;;;;;1.85;0.80;;;;;;;;;;5051772;28;20541;-63
2021/03/24 14:19:27;;;;;;;0.22;0.20;;;;;;;;;;5050749;28;20044;-63
2021/03/24 14:21:53;;;;;;;0.10;0.10;;;;;;;;;;5050346;28;20025;-63
2021/03/24 14:24:19;;;;;;;0.50;0.50;;;;;;;;;;5048208;28;20017;-63
2021/03/24 14:26:51;;;;;;;0.30;0.30;;;;;;;;;;5047736;28;20022;-63
2021/03/24 14:29:27;;;;;;;0.25;0.25;;;;;;;;;;5050864;28;20029;-63
2021/03/24 14:31:53;;;;;;;;;;;;;;;;;;5051270;28;20029;-63
2021/03/24 14:34:19;;;;;;;;;;;;;;;;;;5052525;28;20324;-64
2021/03/24 14:36:45;;;;;;;;;;;;;;;;;;5045928;28;19916;-63
2021/03/24 14:39:11;;;;;;;;;;;;;;;;;;5046640;28;20306;-63
2021/03/24 14:41:37;;;;;;;;;;;;;;;;;;5043606;28;19921;-64
2021/03/24 14:44:03;;;;;;;;;;;;;;;;;;5045329;28;19905;-64
2021/03/24 14:46:44;;;;;;;0.10;0.10;;;;;;;;;;5046224;28;20023;-63
2021/03/24 14:49:19;;;;;;;0.10;0.10;;;;;;;;;;5047403;28;20044;-63
2021/03/24 14:51:47;;;;;;;0.30;0.20;;;;;;;;;;5045500;28;20036;-63
2021/03/24 14:54:15;;;;;;;0.47;0.47;;;;;;;;;;5045967;28;20025;-63
2021/03/24 14:56:43;;;;;;;0.40;0.40;;;;;;;;;;5044210;28;20308;-64
2021/03/24 14:59:31;;;;;;;0.08;0.08;;;;;;;;;;5047241;28;20068;-65
2021/03/24 15:02:16;;;;;;;0.98;0.30;;;;;;;;;;5046369;28;20029;-63
2021/03/24 15:04:43;;;;;;;0.00;0.00;;;;;;;;;;5047707;28;20059;-63
2021/03/24 15:07:32;;;;;;;0.10;0.10;;;;;;;;;;5049596;28;20124;-63
2021/03/24 15:10:21;;;;;;;0.65;0.50;;;;;;;;;;5046030;28;20406;-63
2021/03/24 15:12:49;;;;;;;0.03;0.03;;;;;;;;;;5043947;28;20032;-64
2021/03/24 15:15:18;;;;;;;0.13;0.13;;;;;;;;;;5049673;28;20017;-64
2021/03/24 15:17:56;;;;;;;0.20;0.20;;;;;;;;;;5049093;28;20036;-64
2021/03/24 15:20:31;;;;;;;0.10;0.10;;;;;;;;;;5050515;28;20033;-64
2021/03/24 15:23:15;;;;;;;7.22;0.63;;;;;;;;;;5050401;28;20131;-64
2021/03/24 15:25:48;;;;;;;0.00;0.00;;;;;;;;;;5048863;28;20055;-64
2021/03/24 15:28:14;;;;;;;0.20;0.20;;;;;;;;;;5050285;28;20029;-64
2021/03/24 15:30:52;;;;;;;0.30;0.17;;;;;;;;;;5049281;28;20040;-64
2021/03/24 15:33:29;;;;;;;0.30;0.30;;;;;;;;;;5050770;28;20108;-64
2021/03/24 15:35:58;;;;;;;0.57;0.57;;;;;;;;;;5050986;28;20505;-63
2021/03/24 15:38:40;;;;;;;0.30;0.30;;;;;;;;;;5050172;28;20523;-63
2021/03/24 15:41:09;;;;;;;1.45;1.10;;;;;;;;;;5050044;28;20025;-64
2021/03/24 15:43:39;;;;;;;0.22;0.20;;;;;;;;;;5051360;28;20063;-64
2021/03/24 15:46:13;;;;;;;0.10;0.10;;;;;;;;;;5049952;28;20039;-65
2021/03/24 15:48:51;;;;;;;0.00;0.00;;;;;;;;;;5049067;28;20021;-65
2021/03/24 15:51:21;;;;;;;0.00;0.00;;;;;;;;;;5048561;28;20028;-64
2021/03/24 15:53:53;;;;;;;0.43;0.43;;;;;;;;;;5046947;28;20447;-65
2021/03/24 15:56:26;;;;;;;0.30;0.30;;;;;;;;;;5049666;28;20029;-65
2021/03/24 15:59:11;;;;;;;0.65;0.65;;;;;;;;;;5049294;28;20056;-65
2021/03/24 16:01:37;;;;;;;0.00;0.00;;;;;;;;;;5045370;28;20156;-64
2021/03/24 16:04:18;;;;;;;2.53;0.38;;;;;;;;;;5048440;28;20036;-64
2021/03/24 16:06:47;;;;;;;0.13;0.10;;;;;;;;;;5045497;28;20025;-64
2021/03/24 16:09:31;;;;;;;0.20;0.20;;;;;;;;;;5042443;28;20587;-64
2021/03/24 16:12:25;;;;;;;0.32;0.30;;;;;;;;;;5047042;28;20423;-64
2021/03/24 16:15:00;;;;;;;0.45;0.45;;;;;;;;;;5005665;28;20372;-64
2021/03/24 16:17:46;;;;;;;0.00;0.00;;;;;;;;;;5004382;28;20033;-64
2021/03/24 16:20:12;;;;;;;0.70;0.70;;;;;;;;;;4989200;28;20049;-64
2021/03/24 16:22:44;;;;;;;0.10;0.10;;;;;;;;;;5005828;28;20022;-64
2021/03/24 16:25:13;;;;;;;1.52;0.35;;;;;;;;;;4998878;28;20042;-64
2021/03/24 16:27:55;;;;;;;0.90;0.52;;;;;;;;;;5002784;28;20030;-64
2021/03/24 16:30:23;;;;;;;0.00;0.00;;;;;;;;;;5005173;28;20033;-64
2021/03/24 16:33:12;;;;;;;0.03;0.03;;;;;;;;;;4987084;28;20111;-64
2021/03/24 16:36:03;;;;;;;1.25;0.55;;;;;;;;;;5004993;28;20412;-64
2021/03/24 16:38:45;;;;;;;0.15;0.13;;;;;;;;;;5001260;28;20058;-64
2021/03/24 16:41:23;;;;;;;0.73;0.65;;;;;;;;;;5004147;28;20408;-64
2021/03/24 16:44:05;;;;;;;0.17;0.15;;;;;;;;;;5000505;28;20047;-64
2021/03/24 16:46:32;;;;;;;0.20;0.10;;;;;;;;;;5003682;28;20030;-61
2021/03/24 16:49:07;;;;;;;0.50;0.50;;;;;;;;;;5005569;28;20041;-64
2021/03/24 16:51:52;;;;;;;2.00;0.70;;;;;;;;;;5022382;28;20041;-64
2021/03/24 16:54:21;;;;;;;3.83;3.42;;;;;;;;;;5044474;28;20108;-64
2021/03/24 16:56:58;;;;;;;0.00;0.00;;;;;;;;;;5042212;28;20364;-64
2021/03/24 16:59:24;;;;;;;0.15;0.15;;;;;;;;;;5041608;28;20072;-64
2021/03/24 17:01:50;;;;;;;0.00;0.00;;;;;;;;;;5045469;28;20526;-64
2021/03/24 17:04:17;;;;;;;0.10;0.10;;;;;;;;;;5045410;28;20029;-64
2021/03/24 17:06:46;;;;;;;0.08;0.08;;;;;;;;;;5042727;28;20447;-64
2021/03/24 17:09:31;;;;;;;0.10;0.10;;;;;;;;;;5044162;28;20033;-63
2021/03/24 17:11:57;;;;;;;0.10;0.10;;;;;;;;;;5043842;28;20127;-65
2021/03/24 17:14:23;;;;;;;0.10;0.10;;;;;;;;;;5045935;28;20025;-63
2021/03/24 17:16:54;;;;;;;0.03;0.03;;;;;;;;;;5047473;28;20143;-64
2021/03/24 17:19:33;;;;;;;0.00;0.00;;;;;;;;;;5051163;28;20628;-72
2021/03/24 17:22:00;;;;;;;0.10;0.10;;;;;;;;;;5052809;28;20171;-73
2021/03/24 17:24:33;;;;;;;0.32;0.32;;;;;;;;;;5046314;28;20528;-76
2021/03/24 17:27:10;;;;;;;0.88;0.52;;;;;;;;;;5049809;28;20399;-71
2021/03/24 17:29:37;;;;;;;0.30;0.25;;;;;;;;;;5049902;28;20056;-74
2021/03/24 17:32:07;;;;;;;0.00;0.00;;;;;;;;;;5050411;28;20025;-65
2021/03/24 17:34:41;;;;;;;0.90;0.90;;;;;;;;;;5046569;28;20024;-65
2021/03/24 17:37:19;;;;;;;0.00;0.00;;;;;;;;;;5047582;28;20380;-65
2021/03/24 17:39:52;;;;;;;0.20;0.20;;;;;;;;;;5043068;28;20413;-66
2021/03/24 17:42:18;;;;;;;0.00;0.00;;;;;;;;;;5044148;28;20505;-65
2021/03/24 17:44:49;;;;;;;1.52;0.45;;;;;;;;;;5046675;28;20028;-65
2021/03/24 17:47:24;;;;;;;0.00;0.00;;;;;;;;;;5038243;28;20427;-65
2021/03/24 17:49:53;;;;;;;0.03;0.03;;;;;;;;;;5046347;28;20060;-66
2021/03/24 17:52:40;;;;;;;0.20;0.20;;;;;;;;;;5048684;28;20029;-66
2021/03/24 17:55:12;;;;;;;0.00;0.00;;;;;;;;;;5034827;28;20038;-66
2021/03/24 17:57:41;;;;;;;0.15;0.15;;;;;;;;;;5038452;28;20014;-67
2021/03/24 18:00:13;;;;;;;0.00;0.00;;;;;;;;;;5045953;28;20095;-66
2021/03/24 18:02:49;;;;;;;0.00;0.00;;;;;;;;;;5035700;28;20451;-65
2021/03/24 18:05:22;;;;;;;0.08;0.08;;;;;;;;;;5046833;28;20013;-66
2021/03/24 18:07:49;;;;;;;0.00;0.00;;;;;;;;;;5049959;28;20082;-65
2021/03/24 18:10:15;;;;;;;0.00;0.00;;;;;;;;;;5046573;28;20061;-66
2021/03/24 18:12:41;;;;;;;0.00;0.00;;;;;;;;;;5040774;28;20448;-66
2021/03/24 18:15:15;;;;;;;0.00;0.00;;;;;;;;;;5038445;28;20435;-67
2021/03/24 18:17:49;;;;;;;0.00;0.00;;;;;;;;;;5039623;28;20025;-67
2021/03/24 18:20:23;;;;;;;0.25;0.25;;;;;;;;;;5040913;28;20123;-66
2021/03/24 18:22:52;;;;;;;0.15;0.15;;;;;;;;;;5032335;28;20060;-67
2021/03/24 18:25:30;;;;;;;1.75;0.88;;;;;;;;;;5035855;28;20029;-66
2021/03/24 18:27:59;;;;;;;0.22;0.22;;;;;;;;;;5040354;28;20743;-66
2021/03/24 18:30:27;;;;;;;0.15;0.15;;;;;;;;;;5048593;28;20060;-66
2021/03/24 18:32:53;;;;;;;0.00;0.00;;;;;;;;;;5046728;28;20032;-66
2021/03/24 18:35:22;;;;;;;0.00;0.00;;;;;;;;;;5046682;28;20471;-66
2021/03/24 18:37:51;;;;;;;0.00;0.00;;;;;;;;;;5049424;28;20104;-66
2021/03/24 18:40:18;;;;;;;0.00;0.00;;;;;;;;;;5037187;28;20403;-65
2021/03/24 18:42:46;;;;;;;0.98;0.30;;;;;;;;;;5049220;28;20489;-65
2021/03/24 18:45:19;;;;;;;0.00;0.00;;;;;;;;;;5049233;28;20017;-66
2021/03/24 18:47:46;;;;;;;0.22;0.13;;;;;;;;;;5048709;28;20482;-67
2021/03/24 18:50:28;;;;;;;2.20;0.55;;;;;;;;;;5048832;28;20100;-66
2021/03/24 18:52:54;;;;;;;0.00;0.00;;;;;;;;;;5048360;28;20080;-66
2021/03/24 18:55:28;;;;;;;0.00;0.00;;;;;;;;;;5048861;28;20386;-65
2021/03/24 18:58:13;;;;;;;0.00;0.00;;;;;;;;;;5051648;28;20411;-66
2021/03/24 19:00:50;;;;;;;0.00;0.00;;;;;;;;;;5050303;28;20041;-66
2021/03/24 19:03:19;;;;;;;1.30;0.35;;;;;;;;;;5051537;28;20033;-64
2021/03/24 19:05:45;;;;;;;0.00;0.00;;;;;;;;;;5050530;28;20116;-66
2021/03/24 19:08:20;;;;;;;0.00;0.00;;;;;;;;;;5048396;28;20032;-66
2021/03/24 19:11:12;;;;;;;0.00;0.00;;;;;;;;;;5050763;28;20107;-66
2021/03/24 19:13:38;;;;;;;0.00;0.00;;;;;;;;;;5027865;28;20056;-67
2021/03/24 19:16:06;;;;;;;0.00;0.00;;;;;;;;;;5027653;28;20123;-66
2021/03/24 19:18:34;;;;;;;0.00;0.00;;;;;;;;;;5029135;28;20446;-66
2021/03/24 19:21:04;;;;;;;0.00;0.00;;;;;;;;;;5025907;28;20104;-65
2021/03/24 19:23:30;;;;;;;0.00;0.00;;;;;;;;;;5028644;28;20032;-65
2021/03/24 19:26:16;;;;;;;3.05;0.60;;;;;;;;;;5029189;28;20108;-64
2021/03/24 19:28:43;;;;;;;1.38;0.40;;;;;;;;;;5029668;28;20079;-65
2021/03/24 19:31:10;;;;;;;0.75;0.30;;;;;;;;;;5027766;28;20514;-66
2021/03/24 19:33:42;;;;;;;0.00;0.00;;;;;;;;;;5029858;28;20175;-65
2021/03/24 19:36:11;;;;;;;0.00;0.00;;;;;;;;;;5025020;28;20033;-66
2021/03/24 19:38:43;;;;;;;0.00;0.00;;;;;;;;;;5026413;28;20513;-66
2021/03/24 19:41:09;;;;;;;0.00;0.00;;;;;;;;;;5027334;28;20037;-66
2021/03/24 19:43:45;;;;;;;0.00;0.00;;;;;;;;;;5027815;28;20037;-65
2021/03/24 19:46:28;;;;;;;0.00;0.00;;;;;;;;;;5026749;28;20034;-63
2021/03/24 19:48:54;;;;;;;0.75;0.75;;;;;;;;;;5026058;28;20098;-65
2021/03/24 19:51:21;;;;;;;0.00;0.00;;;;;;;;;;5045393;28;20456;-66
2021/03/24 19:53:49;;;;;;;0.00;0.00;;;;;;;;;;5046274;28;20086;-65
2021/03/24 19:56:38;;;;;;;0.00;0.00;;;;;;;;;;5047519;28;20093;-67
2021/03/24 19:59:26;;;;;;;2.95;2.75;;;;;;;;;;5041791;28;20152;-67
2021/03/24 20:01:57;;;;;;;0.00;0.00;;;;;;;;;;5047836;28;20021;-66
2021/03/24 20:04:33;;;;;;;0.00;0.00;;;;;;;;;;5048986;28;20647;-66
2021/03/24 20:07:04;;;;;;;0.00;0.00;;;;;;;;;;5049037;28;20059;-66
2021/03/24 20:09:36;;;;;;;0.00;0.00;;;;;;;;;;5047117;28;20028;-66
2021/03/24 20:12:04;;;;;;;0.00;0.00;;;;;;;;;;5049189;28;20078;-65
2021/03/24 20:14:30;;;;;;;0.00;0.00;;;;;;;;;;5048810;28;20063;-65
2021/03/24 20:16:58;;;;;;;0.00;0.00;;;;;;;;;;5048841;28;20063;-66
2021/03/24 20:19:24;;;;;;;0.00;0.00;;;;;;;;;;5048498;28;20490;-64
2021/03/24 20:21:52;;;;;;;0.00;0.00;;;;;;;;;;5047707;28;20028;-66
2021/03/24 20:24:20;;;;;;;0.00;0.00;;;;;;;;;;5048394;28;20036;-66
2021/03/24 20:26:47;;;;;;;0.00;0.00;;;;;;;;;;5046762;28;20491;-66
2021/03/24 20:29:18;;;;;;;0.10;0.10;;;;;;;;;;5047846;28;20035;-65
2021/03/24 20:31:54;;;;;;;0.00;0.00;;;;;;;;;;5047555;28;20662;-66
2021/03/24 20:34:23;;;;;;;0.00;0.00;;;;;;;;;;5048687;28;20051;-66
2021/03/24 20:36:52;;;;;;;0.13;0.13;;;;;;;;;;5048745;28;20021;-64
2021/03/24 20:39:19;;;;;;;0.00;0.00;;;;;;;;;;5046447;28;20041;-66
2021/03/24 20:41:52;;;;;;;1.88;0.10;;;;;;;;;;5048270;28;20108;-66
2021/03/24 20:44:21;;;;;;;0.00;0.00;;;;;;;;;;5048381;28;20067;-67
2021/03/24 20:46:47;;;;;;;0.00;0.00;;;;;;;;;;5048561;28;20546;-66
2021/03/24 20:49:19;;;;;;;16.35;0.98;;;;;;;;;;5048778;28;20426;-66
2021/03/24 20:51:45;;;;;;;0.00;0.00;;;;;;;;;;5046351;28;20056;-66
2021/03/24 20:54:11;;;;;;;0.00;0.00;;;;;;;;;;5047999;28;20021;-65
2021/03/24 20:56:37;;;;;;;0.00;0.00;;;;;;;;;;5048025;28;20523;-65
2021/03/24 20:59:03;;;;;;;0.00;0.00;;;;;;;;;;5045234;28;20518;-66
2021/03/24 21:01:30;;;;;;;0.00;0.00;;;;;;;;;;5049238;28;20459;-66
2021/03/24 21:03:56;;;;;;;0.00;0.00;;;;;;;;;;5047817;28;20487;-66
2021/03/24 21:06:22;;;;;;;0.00;0.00;;;;;;;;;;5047361;28;20021;-65
2021/03/24 21:08:48;;;;;;;0.00;0.00;;;;;;;;;;5048411;28;20479;-66
2021/03/24 21:11:15;;;;;;;0.05;0.05;;;;;;;;;;5048188;28;20099;-66
2021/03/24 21:13:41;;;;;;;0.00;0.00;;;;;;;;;;5048345;28;20118;-65
2021/03/24 21:16:12;;;;;;;0.00;0.00;;;;;;;;;;5048545;28;20040;-65
2021/03/24 21:18:39;;;;;;;0.00;0.00;;;;;;;;;;5047554;28;20072;-67
2021/03/24 21:21:07;;;;;;;0.00;0.00;;;;;;;;;;5050374;28;20028;-65
2021/03/24 21:23:34;;;;;;;0.00;0.00;;;;;;;;;;5051000;28;20120;-66